Estación Meteorológica Peña el Pijo (Robertgarden) [ 11/20/17 01:25:43 CET ]

Fecha Hora Presion(HPa) Temp (°C) Humedad % Rocio (°C) Viento ( m/s) Direccion Lluvia 1Hora(mm) Lluvia 24H(mm) LLuvia Total(mm)
2017-Nov-12 01:01:47 1014.000 4.4 73 -0.1         1468.01
2017-Nov-12 02:01:40 1013.400 3.8 75 -0.2         1468.01
2017-Nov-12 03:01:41 1012.900 3.8 76 -0.1         1468.01
2017-Nov-12 04:01:40 1012.400 3.8 76 -0.1         1468.01
2017-Nov-12 05:01:42 1012.400 4.1 74 -0.1         1468.01
2017-Nov-12 06:01:41 1012.400 3.4 73 -1.0         1468.01
2017-Nov-12 07:02:17 1012.000 3.6 72 -1.0         1468.01
2017-Nov-12 08:01:53 1011.900 4.1 71 -0.7         1468.01
2017-Nov-12 09:01:48 1012.300 6.9 69 1.6         1468.01
2017-Nov-12 10:01:38 1011.900 14.9 49 4.3         1468.01
2017-Nov-12 11:01:49 1011.500 18.2 37 3.2         1468.01
2017-Nov-12 12:02:02 1011.200 19.0 31 1.5         1468.01
2017-Nov-12 13:01:59 1010.500 18.9 28 -0.1         1468.01
2017-Nov-12 14:01:48 1009.600 20.8 25 -0.2         1468.01
2017-Nov-12 15:01:47 1009.100 21.0 23 -1.1 1.6 WNW     1468.01
2017-Nov-12 16:01:42 1008.900 20.2 24 -1.2         1468.01
2017-Nov-12 17:01:37 1009.000 17.3 27 -2.1         1468.01
2017-Nov-12 18:01:46 1009.500 14.3 35 -1.1         1468.01
2017-Nov-12 19:01:46 1009.500 10.6 43 -1.5         1468.01
2017-Nov-12 20:01:44 1010.100 7.5 50 -2.2         1468.01
2017-Nov-12 21:01:38 1009.900 5.5 57 -2.4         1468.01
2017-Nov-12 22:01:36 1009.800 5.4 58 -2.2         1468.01
2017-Nov-12 23:01:46 1009.700 6.1 57 -1.8         1468.01

Temperatura Máxima:21°    Temperatura Mínima:
Presión Máxima:1014.000 Hpa    Presión Mínima:1008.900 Hpa


Volver